sensor_id;sensor_type;location;lat;lon;timestamp;temperature;humidity
2957;DHT22;1488;51.548;7.222;2023-06-01T00:00:55;24.20;80.40
2957;DHT22;1488;51.548;7.222;2023-06-01T00:03:22;24.20;80.50
2957;DHT22;1488;51.548;7.222;2023-06-01T00:05:50;24.10;80.30
2957;DHT22;1488;51.548;7.222;2023-06-01T00:08:17;24.20;80.20
2957;DHT22;1488;51.548;7.222;2023-06-01T00:10:45;24.40;80.40
2957;DHT22;1488;51.548;7.222;2023-06-01T00:13:12;24.20;80.10
2957;DHT22;1488;51.548;7.222;2023-06-01T00:15:39;24.10;79.90
2957;DHT22;1488;51.548;7.222;2023-06-01T00:18:05;24.10;79.80
2957;DHT22;1488;51.548;7.222;2023-06-01T00:20:33;24.10;80.20
2957;DHT22;1488;51.548;7.222;2023-06-01T00:23:01;24.10;80.10
2957;DHT22;1488;51.548;7.222;2023-06-01T00:25:29;24.10;80.20
2957;DHT22;1488;51.548;7.222;2023-06-01T00:27:57;24.10;80.00
2957;DHT22;1488;51.548;7.222;2023-06-01T00:30:23;24.10;80.10
2957;DHT22;1488;51.548;7.222;2023-06-01T00:32:50;24.20;80.40
2957;DHT22;1488;51.548;7.222;2023-06-01T00:35:17;24.10;80.70
2957;DHT22;1488;51.548;7.222;2023-06-01T00:37:44;24.10;80.60
2957;DHT22;1488;51.548;7.222;2023-06-01T00:40:11;24.10;80.40
2957;DHT22;1488;51.548;7.222;2023-06-01T00:42:38;24.10;80.20
2957;DHT22;1488;51.548;7.222;2023-06-01T00:45:06;24.10;79.90
2957;DHT22;1488;51.548;7.222;2023-06-01T00:47:39;24.10;80.00
2957;DHT22;1488;51.548;7.222;2023-06-01T00:50:07;24.10;80.10
2957;DHT22;1488;51.548;7.222;2023-06-01T00:52:36;24.10;79.70
2957;DHT22;1488;51.548;7.222;2023-06-01T00:55:04;24.10;79.90
2957;DHT22;1488;51.548;7.222;2023-06-01T00:57:31;24.10;79.80
2957;DHT22;1488;51.548;7.222;2023-06-01T00:59:58;24.10;79.60
2957;DHT22;1488;51.548;7.222;2023-06-01T01:02:26;24.10;79.70
2957;DHT22;1488;51.548;7.222;2023-06-01T01:04:57;24.10;79.90
2957;DHT22;1488;51.548;7.222;2023-06-01T01:07:29;24.10;80.00
2957;DHT22;1488;51.548;7.222;2023-06-01T01:10:02;24.10;80.40
2957;DHT22;1488;51.548;7.222;2023-06-01T01:12:35;24.10;80.40
2957;DHT22;1488;51.548;7.222;2023-06-01T01:15:09;24.10;80.40
2957;DHT22;1488;51.548;7.222;2023-06-01T01:17:43;24.10;80.50
2957;DHT22;1488;51.548;7.222;2023-06-01T01:20:14;24.10;80.50
2957;DHT22;1488;51.548;7.222;2023-06-01T01:23:14;24.10;80.20
2957;DHT22;1488;51.548;7.222;2023-06-01T01:26:08;24.10;80.10
2957;DHT22;1488;51.548;7.222;2023-06-01T01:28:41;24.10;80.00
2957;DHT22;1488;51.548;7.222;2023-06-01T01:31:10;24.10;80.10
2957;DHT22;1488;51.548;7.222;2023-06-01T01:33:38;24.00;80.30
2957;DHT22;1488;51.548;7.222;2023-06-01T01:36:07;24.00;80.10
2957;DHT22;1488;51.548;7.222;2023-06-01T01:38:35;24.00;80.10
2957;DHT22;1488;51.548;7.222;2023-06-01T01:41:02;24.00;80.00
2957;DHT22;1488;51.548;7.222;2023-06-01T01:43:30;24.00;79.80
2957;DHT22;1488;51.548;7.222;2023-06-01T01:46:03;24.00;79.70
2957;DHT22;1488;51.548;7.222;2023-06-01T01:48:36;24.00;79.50
2957;DHT22;1488;51.548;7.222;2023-06-01T01:51:07;24.00;79.40
2957;DHT22;1488;51.548;7.222;2023-06-01T01:53:36;24.00;79.40
2957;DHT22;1488;51.548;7.222;2023-06-01T01:56:07;24.00;79.30
2957;DHT22;1488;51.548;7.222;2023-06-01T01:58:34;24.00;79.10
2957;DHT22;1488;51.548;7.222;2023-06-01T02:01:03;24.00;79.40
2957;DHT22;1488;51.548;7.222;2023-06-01T02:03:30;24.00;79.50
2957;DHT22;1488;51.548;7.222;2023-06-01T02:05:57;24.00;79.20
2957;DHT22;1488;51.548;7.222;2023-06-01T02:08:24;24.00;79.30
2957;DHT22;1488;51.548;7.222;2023-06-01T02:10:50;24.00;79.30
2957;DHT22;1488;51.548;7.222;2023-06-01T02:13:17;24.00;79.30
2957;DHT22;1488;51.548;7.222;2023-06-01T02:15:44;24.00;79.20
2957;DHT22;1488;51.548;7.222;2023-06-01T02:18:12;24.00;79.00
2957;DHT22;1488;51.548;7.222;2023-06-01T02:20:43;23.90;79.20
2957;DHT22;1488;51.548;7.222;2023-06-01T02:23:10;24.00;79.10
2957;DHT22;1488;51.548;7.222;2023-06-01T02:25:37;24.00;79.40
2957;DHT22;1488;51.548;7.222;2023-06-01T02:28:04;24.00;79.20
2957;DHT22;1488;51.548;7.222;2023-06-01T02:30:32;24.00;79.40
2957;DHT22;1488;51.548;7.222;2023-06-01T02:32:59;24.00;79.10
2957;DHT22;1488;51.548;7.222;2023-06-01T02:35:28;24.00;79.30
2957;DHT22;1488;51.548;7.222;2023-06-01T02:37:54;24.00;79.40
2957;DHT22;1488;51.548;7.222;2023-06-01T02:40:22;24.00;79.40
2957;DHT22;1488;51.548;7.222;2023-06-01T02:42:49;24.00;79.30
2957;DHT22;1488;51.548;7.222;2023-06-01T02:45:16;23.90;79.30
2957;DHT22;1488;51.548;7.222;2023-06-01T02:47:42;24.00;79.40
2957;DHT22;1488;51.548;7.222;2023-06-01T02:50:10;24.00;79.60
2957;DHT22;1488;51.548;7.222;2023-06-01T02:52:38;23.90;79.60
2957;DHT22;1488;51.548;7.222;2023-06-01T02:55:06;23.90;79.60
2957;DHT22;1488;51.548;7.222;2023-06-01T02:57:32;23.90;79.40
2957;DHT22;1488;51.548;7.222;2023-06-01T02:59:59;23.90;79.40
2957;DHT22;1488;51.548;7.222;2023-06-01T03:02:26;23.90;79.50
2957;DHT22;1488;51.548;7.222;2023-06-01T03:04:53;23.90;79.40
2957;DHT22;1488;51.548;7.222;2023-06-01T03:07:20;23.90;79.10
2957;DHT22;1488;51.548;7.222;2023-06-01T03:09:48;23.90;79.10
2957;DHT22;1488;51.548;7.222;2023-06-01T03:12:15;23.90;78.80
2957;DHT22;1488;51.548;7.222;2023-06-01T03:14:41;23.90;79.20
2957;DHT22;1488;51.548;7.222;2023-06-01T03:17:08;23.90;79.30
2957;DHT22;1488;51.548;7.222;2023-06-01T03:19:35;23.90;79.20
2957;DHT22;1488;51.548;7.222;2023-06-01T03:22:02;23.90;79.10
2957;DHT22;1488;51.548;7.222;2023-06-01T03:24:29;23.90;78.90
2957;DHT22;1488;51.548;7.222;2023-06-01T03:26:57;23.90;78.70
2957;DHT22;1488;51.548;7.222;2023-06-01T03:29:24;23.90;79.00
2957;DHT22;1488;51.548;7.222;2023-06-01T03:31:50;23.90;79.00
2957;DHT22;1488;51.548;7.222;2023-06-01T03:34:17;23.90;78.80
2957;DHT22;1488;51.548;7.222;2023-06-01T03:36:45;23.90;78.70
2957;DHT22;1488;51.548;7.222;2023-06-01T03:39:13;24.10;78.90
2957;DHT22;1488;51.548;7.222;2023-06-01T03:41:41;23.90;78.60
2957;DHT22;1488;51.548;7.222;2023-06-01T03:44:09;23.90;78.70
2957;DHT22;1488;51.548;7.222;2023-06-01T03:46:36;23.90;79.00
2957;DHT22;1488;51.548;7.222;2023-06-01T03:49:03;23.80;78.80
2957;DHT22;1488;51.548;7.222;2023-06-01T03:51:31;24.00;79.00
2957;DHT22;1488;51.548;7.222;2023-06-01T03:53:58;23.80;78.70
2957;DHT22;1488;51.548;7.222;2023-06-01T03:56:25;23.80;78.50
2957;DHT22;1488;51.548;7.222;2023-06-01T03:58:52;23.80;78.40
2957;DHT22;1488;51.548;7.222;2023-06-01T04:01:21;23.90;78.50
2957;DHT22;1488;51.548;7.222;2023-06-01T04:03:48;23.80;78.50
2957;DHT22;1488;51.548;7.222;2023-06-01T04:06:15;23.80;78.50
2957;DHT22;1488;51.548;7.222;2023-06-01T04:08:43;23.80;78.50
2957;DHT22;1488;51.548;7.222;2023-06-01T04:11:14;23.80;78.40
2957;DHT22;1488;51.548;7.222;2023-06-01T04:13:41;23.80;78.30
2957;DHT22;1488;51.548;7.222;2023-06-01T04:16:09;23.80;78.30
2957;DHT22;1488;51.548;7.222;2023-06-01T04:18:37;23.80;78.40
2957;DHT22;1488;51.548;7.222;2023-06-01T04:21:04;23.80;78.00
2957;DHT22;1488;51.548;7.222;2023-06-01T04:23:32;23.80;77.00
2957;DHT22;1488;51.548;7.222;2023-06-01T04:25:59;23.70;77.10
2957;DHT22;1488;51.548;7.222;2023-06-01T04:28:28;23.70;77.30
2957;DHT22;1488;51.548;7.222;2023-06-01T04:30:55;23.70;77.90
2957;DHT22;1488;51.548;7.222;2023-06-01T04:33:22;23.70;78.00
2957;DHT22;1488;51.548;7.222;2023-06-01T04:35:51;23.70;78.10
2957;DHT22;1488;51.548;7.222;2023-06-01T04:38:19;23.70;78.50
2957;DHT22;1488;51.548;7.222;2023-06-01T04:40:46;23.80;78.60
2957;DHT22;1488;51.548;7.222;2023-06-01T04:43:13;23.70;78.40
2957;DHT22;1488;51.548;7.222;2023-06-01T04:45:45;23.70;78.30
2957;DHT22;1488;51.548;7.222;2023-06-01T04:48:12;23.80;78.40
2957;DHT22;1488;51.548;7.222;2023-06-01T04:50:42;23.80;78.60
2957;DHT22;1488;51.548;7.222;2023-06-01T04:53:11;23.70;78.50
2957;DHT22;1488;51.548;7.222;2023-06-01T04:55:38;23.80;78.90
2957;DHT22;1488;51.548;7.222;2023-06-01T04:58:04;23.80;78.90
2957;DHT22;1488;51.548;7.222;2023-06-01T05:00:31;23.80;78.70
2957;DHT22;1488;51.548;7.222;2023-06-01T05:02:58;23.70;77.50
2957;DHT22;1488;51.548;7.222;2023-06-01T05:05:25;23.70;77.80
2957;DHT22;1488;51.548;7.222;2023-06-01T05:07:52;23.70;77.60
2957;DHT22;1488;51.548;7.222;2023-06-01T05:10:20;23.70;78.40
2957;DHT22;1488;51.548;7.222;2023-06-01T05:12:47;23.70;78.60
2957;DHT22;1488;51.548;7.222;2023-06-01T05:15:14;23.70;78.80
2957;DHT22;1488;51.548;7.222;2023-06-01T05:17:44;23.70;79.20
2957;DHT22;1488;51.548;7.222;2023-06-01T05:20:12;23.70;78.90
2957;DHT22;1488;51.548;7.222;2023-06-01T05:22:39;23.70;78.80
2957;DHT22;1488;51.548;7.222;2023-06-01T05:25:06;23.70;79.20
2957;DHT22;1488;51.548;7.222;2023-06-01T05:27:34;23.70;79.00
2957;DHT22;1488;51.548;7.222;2023-06-01T05:30:03;23.70;79.50
2957;DHT22;1488;51.548;7.222;2023-06-01T05:32:30;23.70;79.90
2957;DHT22;1488;51.548;7.222;2023-06-01T05:34:56;23.70;80.00
2957;DHT22;1488;51.548;7.222;2023-06-01T05:37:23;23.70;79.80
2957;DHT22;1488;51.548;7.222;2023-06-01T05:39:50;23.70;79.60
2957;DHT22;1488;51.548;7.222;2023-06-01T05:42:17;23.70;79.30
2957;DHT22;1488;51.548;7.222;2023-06-01T05:44:45;23.70;79.40
2957;DHT22;1488;51.548;7.222;2023-06-01T05:47:12;23.70;79.40
2957;DHT22;1488;51.548;7.222;2023-06-01T05:49:38;23.70;79.90
2957;DHT22;1488;51.548;7.222;2023-06-01T05:52:06;23.70;80.00
2957;DHT22;1488;51.548;7.222;2023-06-01T05:54:32;23.60;79.70
2957;DHT22;1488;51.548;7.222;2023-06-01T05:56:59;23.60;79.70
2957;DHT22;1488;51.548;7.222;2023-06-01T05:59:26;23.70;79.70
2957;DHT22;1488;51.548;7.222;2023-06-01T06:01:54;23.60;77.90
2957;DHT22;1488;51.548;7.222;2023-06-01T06:04:21;23.40;77.00
2957;DHT22;1488;51.548;7.222;2023-06-01T06:06:48;23.30;77.00
2957;DHT22;1488;51.548;7.222;2023-06-01T06:09:14;23.30;76.80
2957;DHT22;1488;51.548;7.222;2023-06-01T06:11:41;23.20;76.90
2957;DHT22;1488;51.548;7.222;2023-06-01T06:14:08;23.20;76.60
2957;DHT22;1488;51.548;7.222;2023-06-01T06:16:36;23.00;76.30
2957;DHT22;1488;51.548;7.222;2023-06-01T06:19:05;23.00;76.20
2957;DHT22;1488;51.548;7.222;2023-06-01T06:21:32;23.00;75.90
2957;DHT22;1488;51.548;7.222;2023-06-01T06:23:59;22.90;76.40
2957;DHT22;1488;51.548;7.222;2023-06-01T06:26:26;22.90;76.10
2957;DHT22;1488;51.548;7.222;2023-06-01T06:28:53;22.80;76.30
2957;DHT22;1488;51.548;7.222;2023-06-01T06:31:20;22.80;76.40
2957;DHT22;1488;51.548;7.222;2023-06-01T06:33:47;22.70;76.40
2957;DHT22;1488;51.548;7.222;2023-06-01T06:36:16;22.90;76.50
2957;DHT22;1488;51.548;7.222;2023-06-01T06:38:42;22.70;76.40
2957;DHT22;1488;51.548;7.222;2023-06-01T06:41:09;22.60;75.90
2957;DHT22;1488;51.548;7.222;2023-06-01T06:43:36;22.60;76.10
2957;DHT22;1488;51.548;7.222;2023-06-01T06:46:03;22.60;75.90
2957;DHT22;1488;51.548;7.222;2023-06-01T06:48:30;22.60;76.40
2957;DHT22;1488;51.548;7.222;2023-06-01T06:50:57;22.60;76.60
2957;DHT22;1488;51.548;7.222;2023-06-01T06:53:25;22.60;76.50
2957;DHT22;1488;51.548;7.222;2023-06-01T06:55:51;22.60;76.40
2957;DHT22;1488;51.548;7.222;2023-06-01T06:58:18;22.60;76.50
2957;DHT22;1488;51.548;7.222;2023-06-01T07:00:45;22.60;76.20
2957;DHT22;1488;51.548;7.222;2023-06-01T07:03:12;22.50;75.90
2957;DHT22;1488;51.548;7.222;2023-06-01T07:05:39;22.50;75.70
2957;DHT22;1488;51.548;7.222;2023-06-01T07:08:05;22.50;75.80
2957;DHT22;1488;51.548;7.222;2023-06-01T07:10:34;22.50;75.90
2957;DHT22;1488;51.548;7.222;2023-06-01T07:13:00;22.60;76.20
2957;DHT22;1488;51.548;7.222;2023-06-01T07:15:27;22.60;75.70
2957;DHT22;1488;51.548;7.222;2023-06-01T07:17:54;22.70;75.40
2957;DHT22;1488;51.548;7.222;2023-06-01T07:20:21;22.80;74.90
2957;DHT22;1488;51.548;7.222;2023-06-01T07:22:47;22.90;75.00
2957;DHT22;1488;51.548;7.222;2023-06-01T07:25:15;22.90;74.80
2957;DHT22;1488;51.548;7.222;2023-06-01T07:27:43;23.00;75.00
2957;DHT22;1488;51.548;7.222;2023-06-01T07:30:12;23.10;74.80
2957;DHT22;1488;51.548;7.222;2023-06-01T07:32:38;23.10;74.70
2957;DHT22;1488;51.548;7.222;2023-06-01T07:35:06;23.20;74.90
2957;DHT22;1488;51.548;7.222;2023-06-01T07:37:33;23.20;74.90
2957;DHT22;1488;51.548;7.222;2023-06-01T07:40:00;23.20;74.90
2957;DHT22;1488;51.548;7.222;2023-06-01T07:42:28;23.30;74.80
2957;DHT22;1488;51.548;7.222;2023-06-01T07:44:56;23.30;75.00
2957;DHT22;1488;51.548;7.222;2023-06-01T07:47:23;23.30;75.00
2957;DHT22;1488;51.548;7.222;2023-06-01T07:49:50;23.30;75.60
2957;DHT22;1488;51.548;7.222;2023-06-01T07:52:17;23.30;74.50
2957;DHT22;1488;51.548;7.222;2023-06-01T07:54:44;23.40;74.60
2957;DHT22;1488;51.548;7.222;2023-06-01T07:57:11;23.40;75.70
2957;DHT22;1488;51.548;7.222;2023-06-01T07:59:38;23.40;74.70
2957;DHT22;1488;51.548;7.222;2023-06-01T08:02:06;23.50;74.80
2957;DHT22;1488;51.548;7.222;2023-06-01T08:04:33;23.50;74.90
2957;DHT22;1488;51.548;7.222;2023-06-01T08:06:59;23.50;75.60
2957;DHT22;1488;51.548;7.222;2023-06-01T08:09:28;23.50;74.70
2957;DHT22;1488;51.548;7.222;2023-06-01T08:11:55;23.50;74.80
2957;DHT22;1488;51.548;7.222;2023-06-01T08:14:22;23.60;74.80
2957;DHT22;1488;51.548;7.222;2023-06-01T08:16:49;23.60;74.80
2957;DHT22;1488;51.548;7.222;2023-06-01T08:19:19;23.50;74.90
2957;DHT22;1488;51.548;7.222;2023-06-01T08:21:47;23.60;75.00
2957;DHT22;1488;51.548;7.222;2023-06-01T08:24:14;23.60;75.30
2957;DHT22;1488;51.548;7.222;2023-06-01T08:26:42;23.60;75.30
2957;DHT22;1488;51.548;7.222;2023-06-01T08:29:08;23.60;75.30
2957;DHT22;1488;51.548;7.222;2023-06-01T08:31:35;23.70;75.30
2957;DHT22;1488;51.548;7.222;2023-06-01T08:34:03;23.70;75.50
2957;DHT22;1488;51.548;7.222;2023-06-01T08:36:32;23.70;75.40
2957;DHT22;1488;51.548;7.222;2023-06-01T08:38:58;23.80;75.40
2957;DHT22;1488;51.548;7.222;2023-06-01T08:41:34;23.80;75.40
2957;DHT22;1488;51.548;7.222;2023-06-01T08:44:03;23.80;75.30
2957;DHT22;1488;51.548;7.222;2023-06-01T08:46:32;23.90;75.20
2957;DHT22;1488;51.548;7.222;2023-06-01T08:49:00;24.00;75.30
2957;DHT22;1488;51.548;7.222;2023-06-01T08:51:28;23.90;75.10
2957;DHT22;1488;51.548;7.222;2023-06-01T08:54:02;24.00;75.20
2957;DHT22;1488;51.548;7.222;2023-06-01T08:56:30;24.00;75.20
2957;DHT22;1488;51.548;7.222;2023-06-01T08:58:59;24.00;75.20
2957;DHT22;1488;51.548;7.222;2023-06-01T09:01:27;24.10;75.20
2957;DHT22;1488;51.548;7.222;2023-06-01T09:03:54;24.10;75.30
2957;DHT22;1488;51.548;7.222;2023-06-01T09:06:21;24.10;75.20
2957;DHT22;1488;51.548;7.222;2023-06-01T09:08:48;24.10;75.40
2957;DHT22;1488;51.548;7.222;2023-06-01T09:11:16;24.10;75.40
2957;DHT22;1488;51.548;7.222;2023-06-01T09:13:43;24.20;75.40
2957;DHT22;1488;51.548;7.222;2023-06-01T09:16:10;24.20;75.40
2957;DHT22;1488;51.548;7.222;2023-06-01T09:18:37;24.20;75.20
2957;DHT22;1488;51.548;7.222;2023-06-01T09:21:17;24.20;75.40
2957;DHT22;1488;51.548;7.222;2023-06-01T09:23:43;24.20;75.40
2957;DHT22;1488;51.548;7.222;2023-06-01T09:26:12;24.30;75.50
2957;DHT22;1488;51.548;7.222;2023-06-01T09:28:54;24.30;75.70
2957;DHT22;1488;51.548;7.222;2023-06-01T09:31:37;24.30;75.80
2957;DHT22;1488;51.548;7.222;2023-06-01T09:34:05;24.30;75.80
2957;DHT22;1488;51.548;7.222;2023-06-01T09:36:32;24.40;76.10
2957;DHT22;1488;51.548;7.222;2023-06-01T09:39:01;24.40;76.10
2957;DHT22;1488;51.548;7.222;2023-06-01T09:41:35;24.40;76.10
2957;DHT22;1488;51.548;7.222;2023-06-01T09:44:11;24.50;76.20
2957;DHT22;1488;51.548;7.222;2023-06-01T09:46:46;24.50;76.40
2957;DHT22;1488;51.548;7.222;2023-06-01T09:49:18;24.50;76.30
2957;DHT22;1488;51.548;7.222;2023-06-01T09:51:46;24.50;76.10
2957;DHT22;1488;51.548;7.222;2023-06-01T09:54:22;24.50;76.00
2957;DHT22;1488;51.548;7.222;2023-06-01T09:56:49;24.50;75.40
2957;DHT22;1488;51.548;7.222;2023-06-01T09:59:17;24.50;75.20
2957;DHT22;1488;51.548;7.222;2023-06-01T10:01:49;24.40;75.10
2957;DHT22;1488;51.548;7.222;2023-06-01T10:04:18;24.40;75.30
2957;DHT22;1488;51.548;7.222;2023-06-01T10:06:47;24.40;75.20
2957;DHT22;1488;51.548;7.222;2023-06-01T10:09:14;24.30;75.10
2957;DHT22;1488;51.548;7.222;2023-06-01T10:11:45;24.30;75.70
2957;DHT22;1488;51.548;7.222;2023-06-01T10:14:12;24.20;75.50
2957;DHT22;1488;51.548;7.222;2023-06-01T10:16:41;24.20;75.60
2957;DHT22;1488;51.548;7.222;2023-06-01T10:19:08;24.10;75.60
2957;DHT22;1488;51.548;7.222;2023-06-01T10:21:35;24.10;75.70
2957;DHT22;1488;51.548;7.222;2023-06-01T10:24:03;24.00;75.70
2957;DHT22;1488;51.548;7.222;2023-06-01T10:26:35;24.00;75.80
2957;DHT22;1488;51.548;7.222;2023-06-01T10:29:03;24.00;75.90
2957;DHT22;1488;51.548;7.222;2023-06-01T10:31:35;24.00;76.00
2957;DHT22;1488;51.548;7.222;2023-06-01T10:34:03;24.00;76.10
2957;DHT22;1488;51.548;7.222;2023-06-01T10:39:35;23.90;76.00
2957;DHT22;1488;51.548;7.222;2023-06-01T10:42:38;23.90;76.30
2957;DHT22;1488;51.548;7.222;2023-06-01T10:45:38;23.90;76.20
2957;DHT22;1488;51.548;7.222;2023-06-01T10:48:06;24.00;76.70
2957;DHT22;1488;51.548;7.222;2023-06-01T10:50:34;24.00;76.90
2957;DHT22;1488;51.548;7.222;2023-06-01T10:53:24;24.20;77.10
2957;DHT22;1488;51.548;7.222;2023-06-01T10:56:18;24.00;76.80
2957;DHT22;1488;51.548;7.222;2023-06-01T10:58:45;24.10;76.90
2957;DHT22;1488;51.548;7.222;2023-06-01T11:01:18;24.10;76.90
2957;DHT22;1488;51.548;7.222;2023-06-01T11:03:47;24.10;76.80
2957;DHT22;1488;51.548;7.222;2023-06-01T11:06:29;24.10;76.80
2957;DHT22;1488;51.548;7.222;2023-06-01T11:08:58;24.20;77.00
2957;DHT22;1488;51.548;7.222;2023-06-01T11:11:56;24.10;76.70
2957;DHT22;1488;51.548;7.222;2023-06-01T11:14:24;24.20;77.10
2957;DHT22;1488;51.548;7.222;2023-06-01T11:16:53;24.10;76.90
2957;DHT22;1488;51.548;7.222;2023-06-01T11:19:22;24.20;76.90
2957;DHT22;1488;51.548;7.222;2023-06-01T11:21:56;24.20;77.00
2957;DHT22;1488;51.548;7.222;2023-06-01T11:24:31;24.20;77.00
2957;DHT22;1488;51.548;7.222;2023-06-01T11:27:01;24.20;76.90
2957;DHT22;1488;51.548;7.222;2023-06-01T11:29:33;24.20;76.90
2957;DHT22;1488;51.548;7.222;2023-06-01T11:32:01;24.20;76.70
2957;DHT22;1488;51.548;7.222;2023-06-01T11:34:31;24.20;76.90
2957;DHT22;1488;51.548;7.222;2023-06-01T11:37:01;24.20;76.80
2957;DHT22;1488;51.548;7.222;2023-06-01T11:39:28;24.20;76.80
2957;DHT22;1488;51.548;7.222;2023-06-01T11:42:04;24.20;76.90
2957;DHT22;1488;51.548;7.222;2023-06-01T11:44:32;24.20;77.00
2957;DHT22;1488;51.548;7.222;2023-06-01T11:46:59;24.20;77.00
2957;DHT22;1488;51.548;7.222;2023-06-01T11:49:26;24.20;76.90
2957;DHT22;1488;51.548;7.222;2023-06-01T11:51:54;24.20;77.00
2957;DHT22;1488;51.548;7.222;2023-06-01T11:54:24;24.20;77.00
2957;DHT22;1488;51.548;7.222;2023-06-01T11:56:52;24.20;77.00
2957;DHT22;1488;51.548;7.222;2023-06-01T11:59:19;24.20;76.90
2957;DHT22;1488;51.548;7.222;2023-06-01T12:01:48;24.20;76.90
2957;DHT22;1488;51.548;7.222;2023-06-01T12:04:16;24.20;76.90
2957;DHT22;1488;51.548;7.222;2023-06-01T12:06:44;24.20;76.90
2957;DHT22;1488;51.548;7.222;2023-06-01T12:09:12;24.30;77.10
2957;DHT22;1488;51.548;7.222;2023-06-01T12:11:42;24.20;76.90
2957;DHT22;1488;51.548;7.222;2023-06-01T12:14:10;24.20;77.10
2957;DHT22;1488;51.548;7.222;2023-06-01T12:16:53;24.30;77.20
2957;DHT22;1488;51.548;7.222;2023-06-01T12:19:21;24.30;77.10
2957;DHT22;1488;51.548;7.222;2023-06-01T12:21:48;24.30;77.10
2957;DHT22;1488;51.548;7.222;2023-06-01T12:24:17;24.30;77.10
2957;DHT22;1488;51.548;7.222;2023-06-01T12:26:45;24.30;77.10
2957;DHT22;1488;51.548;7.222;2023-06-01T12:29:12;24.30;77.10
2957;DHT22;1488;51.548;7.222;2023-06-01T12:31:39;24.30;77.20
2957;DHT22;1488;51.548;7.222;2023-06-01T12:34:17;24.30;77.20
2957;DHT22;1488;51.548;7.222;2023-06-01T12:36:44;24.30;77.20
2957;DHT22;1488;51.548;7.222;2023-06-01T12:39:11;24.30;77.30
2957;DHT22;1488;51.548;7.222;2023-06-01T12:41:48;24.30;77.10
2957;DHT22;1488;51.548;7.222;2023-06-01T12:44:20;24.30;77.20
2957;DHT22;1488;51.548;7.222;2023-06-01T12:46:47;24.30;77.20
2957;DHT22;1488;51.548;7.222;2023-06-01T12:49:22;24.30;77.30
2957;DHT22;1488;51.548;7.222;2023-06-01T12:51:49;24.30;77.10
2957;DHT22;1488;51.548;7.222;2023-06-01T12:54:16;24.30;77.10
2957;DHT22;1488;51.548;7.222;2023-06-01T12:56:44;24.30;77.30
2957;DHT22;1488;51.548;7.222;2023-06-01T12:59:12;24.40;77.30
2957;DHT22;1488;51.548;7.222;2023-06-01T13:01:39;24.40;77.40
2957;DHT22;1488;51.548;7.222;2023-06-01T13:04:05;24.40;78.20
2957;DHT22;1488;51.548;7.222;2023-06-01T13:06:33;24.40;77.50
2957;DHT22;1488;51.548;7.222;2023-06-01T13:09:00;24.40;77.30
2957;DHT22;1488;51.548;7.222;2023-06-01T13:11:26;24.40;77.40
2957;DHT22;1488;51.548;7.222;2023-06-01T13:13:54;24.40;77.50
2957;DHT22;1488;51.548;7.222;2023-06-01T13:16:22;24.40;77.40
2957;DHT22;1488;51.548;7.222;2023-06-01T13:18:48;24.40;77.40
2957;DHT22;1488;51.548;7.222;2023-06-01T13:21:16;24.40;77.40
2957;DHT22;1488;51.548;7.222;2023-06-01T13:23:43;24.40;77.40
2957;DHT22;1488;51.548;7.222;2023-06-01T13:26:10;24.40;77.50
2957;DHT22;1488;51.548;7.222;2023-06-01T13:28:37;24.40;77.70
2957;DHT22;1488;51.548;7.222;2023-06-01T13:31:04;24.40;77.50
2957;DHT22;1488;51.548;7.222;2023-06-01T13:33:32;24.40;77.60
2957;DHT22;1488;51.548;7.222;2023-06-01T13:35:59;24.40;77.70
2957;DHT22;1488;51.548;7.222;2023-06-01T13:38:28;24.40;77.50
2957;DHT22;1488;51.548;7.222;2023-06-01T13:40:56;24.40;77.50
2957;DHT22;1488;51.548;7.222;2023-06-01T13:43:22;24.40;77.60
2957;DHT22;1488;51.548;7.222;2023-06-01T13:45:50;24.50;77.60
2957;DHT22;1488;51.548;7.222;2023-06-01T13:48:17;24.50;77.50
2957;DHT22;1488;51.548;7.222;2023-06-01T13:50:45;24.40;77.60
2957;DHT22;1488;51.548;7.222;2023-06-01T13:53:12;24.50;77.70
2957;DHT22;1488;51.548;7.222;2023-06-01T13:55:39;24.50;77.80
2957;DHT22;1488;51.548;7.222;2023-06-01T13:58:06;24.50;77.70
2957;DHT22;1488;51.548;7.222;2023-06-01T14:00:32;24.40;77.60
2957;DHT22;1488;51.548;7.222;2023-06-01T14:02:59;24.40;77.60
2957;DHT22;1488;51.548;7.222;2023-06-01T14:05:26;24.50;77.70
2957;DHT22;1488;51.548;7.222;2023-06-01T14:07:54;24.50;77.60
2957;DHT22;1488;51.548;7.222;2023-06-01T14:10:21;24.50;78.70
2957;DHT22;1488;51.548;7.222;2023-06-01T14:12:48;24.50;77.80
2957;DHT22;1488;51.548;7.222;2023-06-01T14:15:15;24.50;77.60
2957;DHT22;1488;51.548;7.222;2023-06-01T14:17:42;24.50;77.70
2957;DHT22;1488;51.548;7.222;2023-06-01T14:20:09;24.50;77.70
2957;DHT22;1488;51.548;7.222;2023-06-01T14:22:36;24.50;77.10
2957;DHT22;1488;51.548;7.222;2023-06-01T14:25:05;24.40;76.50
2957;DHT22;1488;51.548;7.222;2023-06-01T14:27:32;24.30;76.20
2957;DHT22;1488;51.548;7.222;2023-06-01T14:29:59;24.30;76.30
2957;DHT22;1488;51.548;7.222;2023-06-01T14:32:28;24.20;76.20
2957;DHT22;1488;51.548;7.222;2023-06-01T14:34:55;24.20;76.30
2957;DHT22;1488;51.548;7.222;2023-06-01T14:37:22;24.20;76.40
2957;DHT22;1488;51.548;7.222;2023-06-01T14:39:49;24.10;76.30
2957;DHT22;1488;51.548;7.222;2023-06-01T14:42:17;24.10;76.40
2957;DHT22;1488;51.548;7.222;2023-06-01T14:44:44;24.10;76.50
2957;DHT22;1488;51.548;7.222;2023-06-01T14:47:11;24.10;76.70
2957;DHT22;1488;51.548;7.222;2023-06-01T14:49:39;24.20;76.80
2957;DHT22;1488;51.548;7.222;2023-06-01T14:52:06;24.00;76.50
2957;DHT22;1488;51.548;7.222;2023-06-01T14:54:33;24.00;76.60
2957;DHT22;1488;51.548;7.222;2023-06-01T14:57:00;24.00;76.60
2957;DHT22;1488;51.548;7.222;2023-06-01T14:59:28;24.00;76.50
2957;DHT22;1488;51.548;7.222;2023-06-01T15:01:55;24.00;76.40
2957;DHT22;1488;51.548;7.222;2023-06-01T15:04:22;24.00;76.60
2957;DHT22;1488;51.548;7.222;2023-06-01T15:06:50;24.00;76.70
2957;DHT22;1488;51.548;7.222;2023-06-01T15:09:17;24.00;76.80
2957;DHT22;1488;51.548;7.222;2023-06-01T15:11:43;23.90;76.60
2957;DHT22;1488;51.548;7.222;2023-06-01T15:14:10;24.00;76.60
2957;DHT22;1488;51.548;7.222;2023-06-01T15:16:38;24.00;76.60
2957;DHT22;1488;51.548;7.222;2023-06-01T15:19:06;24.00;76.70
2957;DHT22;1488;51.548;7.222;2023-06-01T15:21:32;23.90;76.60
2957;DHT22;1488;51.548;7.222;2023-06-01T15:23:59;23.90;76.50
2957;DHT22;1488;51.548;7.222;2023-06-01T15:26:26;24.00;76.60
2957;DHT22;1488;51.548;7.222;2023-06-01T15:28:53;24.00;76.70
2957;DHT22;1488;51.548;7.222;2023-06-01T15:31:19;23.90;76.60
2957;DHT22;1488;51.548;7.222;2023-06-01T15:33:49;23.90;76.60
2957;DHT22;1488;51.548;7.222;2023-06-01T15:36:16;23.90;76.70
2957;DHT22;1488;51.548;7.222;2023-06-01T15:38:42;24.10;76.90
2957;DHT22;1488;51.548;7.222;2023-06-01T15:41:09;23.90;76.80
2957;DHT22;1488;51.548;7.222;2023-06-01T15:43:36;24.00;77.00
2957;DHT22;1488;51.548;7.222;2023-06-01T15:46:04;24.10;77.40
2957;DHT22;1488;51.548;7.222;2023-06-01T15:48:31;23.90;77.60
2957;DHT22;1488;51.548;7.222;2023-06-01T15:50:59;24.00;77.60
2957;DHT22;1488;51.548;7.222;2023-06-01T15:53:26;24.10;77.60
2957;DHT22;1488;51.548;7.222;2023-06-01T15:55:53;24.10;77.60
2957;DHT22;1488;51.548;7.222;2023-06-01T15:58:20;24.10;77.60
2957;DHT22;1488;51.548;7.222;2023-06-01T16:00:46;24.20;77.70
2957;DHT22;1488;51.548;7.222;2023-06-01T16:03:13;24.10;77.50
2957;DHT22;1488;51.548;7.222;2023-06-01T16:05:40;24.20;77.50
2957;DHT22;1488;51.548;7.222;2023-06-01T16:08:09;24.20;77.60
2957;DHT22;1488;51.548;7.222;2023-06-01T16:10:35;24.20;77.40
2957;DHT22;1488;51.548;7.222;2023-06-01T16:13:02;24.20;77.30